sensor_id;sensor_type;location;lat;lon;timestamp;P1;durP1;ratioP1;P2;durP2;ratioP2
27408;SDS011;20413;50.782;7.152;2022-12-13T00:01:11;54.88;;;23.48;;
27408;SDS011;20413;50.782;7.152;2022-12-13T00:03:38;53.00;;;24.48;;
27408;SDS011;20413;50.782;7.152;2022-12-13T00:06:07;61.72;;;24.67;;
27408;SDS011;20413;50.782;7.152;2022-12-13T00:08:33;60.22;;;25.27;;
27408;SDS011;20413;50.782;7.152;2022-12-13T00:11:00;59.60;;;25.55;;
27408;SDS011;20413;50.782;7.152;2022-12-13T00:13:27;56.00;;;24.63;;
27408;SDS011;20413;50.782;7.152;2022-12-13T00:15:56;57.00;;;25.13;;
27408;SDS011;20413;50.782;7.152;2022-12-13T00:18:22;55.53;;;23.92;;
27408;SDS011;20413;50.782;7.152;2022-12-13T00:20:48;58.65;;;25.58;;
27408;SDS011;20413;50.782;7.152;2022-12-13T00:23:14;63.70;;;26.10;;
27408;SDS011;20413;50.782;7.152;2022-12-13T00:25:41;59.97;;;26.42;;
27408;SDS011;20413;50.782;7.152;2022-12-13T00:28:07;55.17;;;24.48;;
27408;SDS011;20413;50.782;7.152;2022-12-13T00:30:33;59.53;;;25.25;;
27408;SDS011;20413;50.782;7.152;2022-12-13T00:32:59;53.72;;;24.02;;
27408;SDS011;20413;50.782;7.152;2022-12-13T00:35:25;57.95;;;25.42;;
27408;SDS011;20413;50.782;7.152;2022-12-13T00:37:51;69.47;;;28.10;;
27408;SDS011;20413;50.782;7.152;2022-12-13T00:40:17;59.13;;;25.35;;
27408;SDS011;20413;50.782;7.152;2022-12-13T00:42:43;60.08;;;26.08;;
27408;SDS011;20413;50.782;7.152;2022-12-13T00:45:09;65.53;;;27.05;;
27408;SDS011;20413;50.782;7.152;2022-12-13T00:47:35;80.72;;;28.45;;
27408;SDS011;20413;50.782;7.152;2022-12-13T00:50:02;81.68;;;29.15;;
27408;SDS011;20413;50.782;7.152;2022-12-13T00:52:28;57.58;;;21.38;;
27408;SDS011;20413;50.782;7.152;2022-12-13T00:54:54;82.25;;;30.52;;
27408;SDS011;20413;50.782;7.152;2022-12-13T00:57:20;73.35;;;27.70;;
27408;SDS011;20413;50.782;7.152;2022-12-13T00:59:46;68.40;;;26.52;;
27408;SDS011;20413;50.782;7.152;2022-12-13T01:02:12;60.53;;;26.50;;
27408;SDS011;20413;50.782;7.152;2022-12-13T01:04:38;68.13;;;27.60;;
27408;SDS011;20413;50.782;7.152;2022-12-13T01:07:04;59.85;;;26.05;;
27408;SDS011;20413;50.782;7.152;2022-12-13T01:09:30;61.85;;;27.25;;
27408;SDS011;20413;50.782;7.152;2022-12-13T01:12:01;63.07;;;25.97;;
27408;SDS011;20413;50.782;7.152;2022-12-13T01:14:28;62.63;;;26.08;;
27408;SDS011;20413;50.782;7.152;2022-12-13T01:16:54;58.22;;;25.45;;
27408;SDS011;20413;50.782;7.152;2022-12-13T01:19:23;55.25;;;24.30;;
27408;SDS011;20413;50.782;7.152;2022-12-13T01:21:53;59.13;;;24.95;;
27408;SDS011;20413;50.782;7.152;2022-12-13T01:24:19;56.15;;;24.35;;
27408;SDS011;20413;50.782;7.152;2022-12-13T01:26:46;52.88;;;24.55;;
27408;SDS011;20413;50.782;7.152;2022-12-13T01:29:13;53.47;;;25.20;;
27408;SDS011;20413;50.782;7.152;2022-12-13T01:31:39;53.05;;;24.70;;
27408;SDS011;20413;50.782;7.152;2022-12-13T01:34:06;57.47;;;26.45;;
27408;SDS011;20413;50.782;7.152;2022-12-13T01:36:34;53.40;;;23.85;;
27408;SDS011;20413;50.782;7.152;2022-12-13T01:39:00;58.42;;;25.45;;
27408;SDS011;20413;50.782;7.152;2022-12-13T01:41:27;38.95;;;18.90;;
27408;SDS011;20413;50.782;7.152;2022-12-13T01:44:03;57.72;;;24.45;;
27408;SDS011;20413;50.782;7.152;2022-12-13T01:46:30;53.47;;;25.27;;
27408;SDS011;20413;50.782;7.152;2022-12-13T01:49:04;57.63;;;25.10;;
27408;SDS011;20413;50.782;7.152;2022-12-13T01:51:33;52.90;;;24.52;;
27408;SDS011;20413;50.782;7.152;2022-12-13T01:54:00;57.10;;;26.08;;
27408;SDS011;20413;50.782;7.152;2022-12-13T01:56:29;59.60;;;25.10;;
27408;SDS011;20413;50.782;7.152;2022-12-13T01:58:56;59.38;;;26.27;;
27408;SDS011;20413;50.782;7.152;2022-12-13T02:01:23;54.65;;;25.27;;
27408;SDS011;20413;50.782;7.152;2022-12-13T02:03:50;58.97;;;25.23;;
27408;SDS011;20413;50.782;7.152;2022-12-13T02:06:17;59.13;;;25.17;;
27408;SDS011;20413;50.782;7.152;2022-12-13T02:08:44;67.20;;;26.05;;
27408;SDS011;20413;50.782;7.152;2022-12-13T02:11:10;57.58;;;25.77;;
27408;SDS011;20413;50.782;7.152;2022-12-13T02:13:37;59.88;;;25.10;;
27408;SDS011;20413;50.782;7.152;2022-12-13T02:34:25;52.95;;;24.33;;
27408;SDS011;20413;50.782;7.152;2022-12-13T02:37:03;55.67;;;25.30;;
27408;SDS011;20413;50.782;7.152;2022-12-13T02:39:32;51.45;;;25.27;;
27408;SDS011;20413;50.782;7.152;2022-12-13T02:42:01;56.20;;;23.75;;
27408;SDS011;20413;50.782;7.152;2022-12-13T02:44:36;53.58;;;24.02;;
27408;SDS011;20413;50.782;7.152;2022-12-13T02:47:04;52.85;;;23.63;;
27408;SDS011;20413;50.782;7.152;2022-12-13T02:49:33;56.22;;;24.05;;
27408;SDS011;20413;50.782;7.152;2022-12-13T02:52:01;49.65;;;23.75;;
27408;SDS011;20413;50.782;7.152;2022-12-13T02:54:28;43.50;;;17.98;;
27408;SDS011;20413;50.782;7.152;2022-12-13T02:56:58;52.20;;;23.55;;
27408;SDS011;20413;50.782;7.152;2022-12-13T02:59:26;51.58;;;23.95;;
27408;SDS011;20413;50.782;7.152;2022-12-13T03:07:31;57.95;;;25.70;;
27408;SDS011;20413;50.782;7.152;2022-12-13T03:10:01;61.17;;;26.27;;
27408;SDS011;20413;50.782;7.152;2022-12-13T03:15:24;69.78;;;27.85;;
27408;SDS011;20413;50.782;7.152;2022-12-13T03:17:59;51.60;;;21.52;;
27408;SDS011;20413;50.782;7.152;2022-12-13T03:20:27;64.40;;;26.30;;
27408;SDS011;20413;50.782;7.152;2022-12-13T03:22:54;71.25;;;30.80;;
27408;SDS011;20413;50.782;7.152;2022-12-13T03:25:21;61.23;;;24.70;;
27408;SDS011;20413;50.782;7.152;2022-12-13T03:27:48;50.10;;;20.90;;
27408;SDS011;20413;50.782;7.152;2022-12-13T03:30:14;70.15;;;31.13;;
27408;SDS011;20413;50.782;7.152;2022-12-13T03:32:40;68.55;;;28.15;;
27408;SDS011;20413;50.782;7.152;2022-12-13T03:35:06;68.97;;;30.80;;
27408;SDS011;20413;50.782;7.152;2022-12-13T03:37:32;70.70;;;30.30;;
27408;SDS011;20413;50.782;7.152;2022-12-13T03:39:58;70.45;;;29.85;;
27408;SDS011;20413;50.782;7.152;2022-12-13T03:42:24;69.18;;;30.17;;
27408;SDS011;20413;50.782;7.152;2022-12-13T03:44:50;66.03;;;28.75;;
27408;SDS011;20413;50.782;7.152;2022-12-13T03:47:17;68.97;;;29.05;;
27408;SDS011;20413;50.782;7.152;2022-12-13T03:49:43;69.30;;;29.20;;
27408;SDS011;20413;50.782;7.152;2022-12-13T03:52:09;69.60;;;30.40;;
27408;SDS011;20413;50.782;7.152;2022-12-13T03:54:35;65.65;;;29.55;;
27408;SDS011;20413;50.782;7.152;2022-12-13T03:57:01;69.38;;;29.95;;
27408;SDS011;20413;50.782;7.152;2022-12-13T03:59:27;67.47;;;28.30;;
27408;SDS011;20413;50.782;7.152;2022-12-13T04:01:53;70.93;;;29.40;;
27408;SDS011;20413;50.782;7.152;2022-12-13T04:04:19;64.47;;;27.65;;
27408;SDS011;20413;50.782;7.152;2022-12-13T04:06:45;67.40;;;28.77;;
27408;SDS011;20413;50.782;7.152;2022-12-13T04:09:11;69.75;;;29.52;;
27408;SDS011;20413;50.782;7.152;2022-12-13T04:11:37;68.15;;;28.35;;
27408;SDS011;20413;50.782;7.152;2022-12-13T04:14:22;59.08;;;26.70;;
27408;SDS011;20413;50.782;7.152;2022-12-13T04:16:49;65.20;;;27.88;;
27408;SDS011;20413;50.782;7.152;2022-12-13T04:19:16;68.60;;;28.58;;
27408;SDS011;20413;50.782;7.152;2022-12-13T04:21:42;65.22;;;28.50;;
27408;SDS011;20413;50.782;7.152;2022-12-13T04:24:08;61.45;;;27.45;;
27408;SDS011;20413;50.782;7.152;2022-12-13T04:26:34;62.47;;;26.63;;
27408;SDS011;20413;50.782;7.152;2022-12-13T04:29:00;61.60;;;26.27;;
27408;SDS011;20413;50.782;7.152;2022-12-13T04:31:26;57.42;;;25.58;;
27408;SDS011;20413;50.782;7.152;2022-12-13T04:33:54;61.88;;;25.75;;
27408;SDS011;20413;50.782;7.152;2022-12-13T04:36:20;60.08;;;26.73;;
27408;SDS011;20413;50.782;7.152;2022-12-13T04:38:46;55.42;;;24.77;;
27408;SDS011;20413;50.782;7.152;2022-12-13T04:41:13;60.30;;;25.67;;
27408;SDS011;20413;50.782;7.152;2022-12-13T04:43:40;51.55;;;24.83;;
27408;SDS011;20413;50.782;7.152;2022-12-13T04:46:06;56.92;;;25.73;;
27408;SDS011;20413;50.782;7.152;2022-12-13T04:48:32;49.67;;;24.45;;
27408;SDS011;20413;50.782;7.152;2022-12-13T04:50:58;55.35;;;25.70;;
27408;SDS011;20413;50.782;7.152;2022-12-13T04:53:25;52.00;;;23.70;;
27408;SDS011;20413;50.782;7.152;2022-12-13T04:55:51;53.83;;;24.98;;
27408;SDS011;20413;50.782;7.152;2022-12-13T04:58:17;52.63;;;23.42;;
27408;SDS011;20413;50.782;7.152;2022-12-13T05:00:43;55.47;;;24.30;;
27408;SDS011;20413;50.782;7.152;2022-12-13T05:03:09;52.33;;;23.27;;
27408;SDS011;20413;50.782;7.152;2022-12-13T05:05:38;52.95;;;23.17;;
27408;SDS011;20413;50.782;7.152;2022-12-13T05:08:05;50.95;;;23.77;;
27408;SDS011;20413;50.782;7.152;2022-12-13T05:10:31;52.65;;;23.48;;
27408;SDS011;20413;50.782;7.152;2022-12-13T05:12:58;52.78;;;23.70;;
27408;SDS011;20413;50.782;7.152;2022-12-13T05:15:24;52.08;;;23.55;;
27408;SDS011;20413;50.782;7.152;2022-12-13T05:17:50;49.78;;;23.20;;
27408;SDS011;20413;50.782;7.152;2022-12-13T05:20:16;50.13;;;22.65;;
27408;SDS011;20413;50.782;7.152;2022-12-13T05:22:42;47.72;;;20.98;;
27408;SDS011;20413;50.782;7.152;2022-12-13T05:25:09;52.33;;;23.70;;
27408;SDS011;20413;50.782;7.152;2022-12-13T05:27:35;53.05;;;22.58;;
27408;SDS011;20413;50.782;7.152;2022-12-13T05:30:01;52.88;;;22.83;;
27408;SDS011;20413;50.782;7.152;2022-12-13T05:32:27;52.53;;;23.33;;
27408;SDS011;20413;50.782;7.152;2022-12-13T05:34:53;49.08;;;22.17;;
27408;SDS011;20413;50.782;7.152;2022-12-13T05:37:20;37.53;;;18.05;;
27408;SDS011;20413;50.782;7.152;2022-12-13T05:39:46;47.45;;;21.85;;
27408;SDS011;20413;50.782;7.152;2022-12-13T05:42:12;52.97;;;24.80;;
27408;SDS011;20413;50.782;7.152;2022-12-13T05:44:38;49.35;;;22.27;;
27408;SDS011;20413;50.782;7.152;2022-12-13T05:47:04;50.97;;;22.90;;
27408;SDS011;20413;50.782;7.152;2022-12-13T05:49:30;53.42;;;22.80;;
27408;SDS011;20413;50.782;7.152;2022-12-13T05:51:56;50.25;;;21.95;;
27408;SDS011;20413;50.782;7.152;2022-12-13T05:54:22;53.20;;;22.80;;
27408;SDS011;20413;50.782;7.152;2022-12-13T05:56:48;55.75;;;24.00;;
27408;SDS011;20413;50.782;7.152;2022-12-13T05:59:14;59.25;;;25.05;;
27408;SDS011;20413;50.782;7.152;2022-12-13T06:01:40;51.40;;;22.85;;
27408;SDS011;20413;50.782;7.152;2022-12-13T06:04:06;56.83;;;24.17;;
27408;SDS011;20413;50.782;7.152;2022-12-13T06:06:32;52.78;;;24.42;;
27408;SDS011;20413;50.782;7.152;2022-12-13T06:08:58;54.15;;;23.65;;
27408;SDS011;20413;50.782;7.152;2022-12-13T06:11:24;55.47;;;24.00;;
27408;SDS011;20413;50.782;7.152;2022-12-13T06:13:50;53.95;;;23.80;;
27408;SDS011;20413;50.782;7.152;2022-12-13T06:16:17;53.03;;;23.08;;
27408;SDS011;20413;50.782;7.152;2022-12-13T06:18:43;56.65;;;24.50;;
27408;SDS011;20413;50.782;7.152;2022-12-13T06:21:09;49.75;;;22.95;;
27408;SDS011;20413;50.782;7.152;2022-12-13T06:23:35;53.28;;;25.38;;
27408;SDS011;20413;50.782;7.152;2022-12-13T06:26:02;53.95;;;24.40;;
27408;SDS011;20413;50.782;7.152;2022-12-13T06:28:28;52.75;;;23.10;;
27408;SDS011;20413;50.782;7.152;2022-12-13T06:30:57;56.85;;;25.15;;
27408;SDS011;20413;50.782;7.152;2022-12-13T06:33:23;50.55;;;23.40;;
27408;SDS011;20413;50.782;7.152;2022-12-13T06:35:49;55.50;;;23.52;;
27408;SDS011;20413;50.782;7.152;2022-12-13T06:38:16;52.90;;;22.98;;
27408;SDS011;20413;50.782;7.152;2022-12-13T06:40:42;59.72;;;25.45;;
27408;SDS011;20413;50.782;7.152;2022-12-13T06:43:08;57.10;;;24.98;;
27408;SDS011;20413;50.782;7.152;2022-12-13T06:45:37;60.15;;;25.20;;
27408;SDS011;20413;50.782;7.152;2022-12-13T06:48:04;54.55;;;24.52;;
27408;SDS011;20413;50.782;7.152;2022-12-13T06:50:30;55.28;;;25.00;;
27408;SDS011;20413;50.782;7.152;2022-12-13T06:52:56;52.72;;;25.00;;
27408;SDS011;20413;50.782;7.152;2022-12-13T06:55:22;48.38;;;22.35;;
27408;SDS011;20413;50.782;7.152;2022-12-13T06:57:48;56.03;;;24.67;;
27408;SDS011;20413;50.782;7.152;2022-12-13T07:00:14;52.08;;;23.17;;
27408;SDS011;20413;50.782;7.152;2022-12-13T07:02:41;53.70;;;24.52;;
27408;SDS011;20413;50.782;7.152;2022-12-13T07:05:07;55.25;;;23.95;;
27408;SDS011;20413;50.782;7.152;2022-12-13T07:07:34;53.13;;;23.42;;
27408;SDS011;20413;50.782;7.152;2022-12-13T07:10:00;53.50;;;23.90;;
27408;SDS011;20413;50.782;7.152;2022-12-13T07:12:26;58.97;;;26.55;;
27408;SDS011;20413;50.782;7.152;2022-12-13T07:14:52;57.38;;;25.27;;
27408;SDS011;20413;50.782;7.152;2022-12-13T07:17:19;50.08;;;23.83;;
27408;SDS011;20413;50.782;7.152;2022-12-13T07:19:45;50.63;;;22.83;;
27408;SDS011;20413;50.782;7.152;2022-12-13T07:22:11;41.60;;;17.73;;
27408;SDS011;20413;50.782;7.152;2022-12-13T07:24:37;54.35;;;23.95;;
27408;SDS011;20413;50.782;7.152;2022-12-13T07:27:03;52.08;;;23.52;;
27408;SDS011;20413;50.782;7.152;2022-12-13T07:29:29;57.38;;;24.70;;
27408;SDS011;20413;50.782;7.152;2022-12-13T07:31:55;52.35;;;23.92;;
27408;SDS011;20413;50.782;7.152;2022-12-13T07:34:21;59.58;;;25.52;;
27408;SDS011;20413;50.782;7.152;2022-12-13T07:36:50;59.80;;;25.75;;
27408;SDS011;20413;50.782;7.152;2022-12-13T07:39:16;54.72;;;24.25;;
27408;SDS011;20413;50.782;7.152;2022-12-13T07:41:42;59.28;;;26.63;;
27408;SDS011;20413;50.782;7.152;2022-12-13T07:44:08;58.65;;;25.00;;
27408;SDS011;20413;50.782;7.152;2022-12-13T07:46:34;56.88;;;26.15;;
27408;SDS011;20413;50.782;7.152;2022-12-13T07:49:01;55.78;;;25.17;;
27408;SDS011;20413;50.782;7.152;2022-12-13T07:51:27;61.45;;;25.90;;
27408;SDS011;20413;50.782;7.152;2022-12-13T07:53:53;61.53;;;25.15;;
27408;SDS011;20413;50.782;7.152;2022-12-13T07:56:19;57.92;;;24.05;;
27408;SDS011;20413;50.782;7.152;2022-12-13T07:58:45;60.22;;;25.95;;
27408;SDS011;20413;50.782;7.152;2022-12-13T08:01:11;60.42;;;25.40;;
27408;SDS011;20413;50.782;7.152;2022-12-13T08:03:37;64.55;;;26.35;;
27408;SDS011;20413;50.782;7.152;2022-12-13T08:08:30;57.22;;;25.40;;
27408;SDS011;20413;50.782;7.152;2022-12-13T08:11:00;55.70;;;24.85;;
27408;SDS011;20413;50.782;7.152;2022-12-13T08:13:26;57.05;;;24.10;;
27408;SDS011;20413;50.782;7.152;2022-12-13T08:15:56;53.92;;;24.17;;
27408;SDS011;20413;50.782;7.152;2022-12-13T08:18:23;52.22;;;23.20;;
27408;SDS011;20413;50.782;7.152;2022-12-13T08:20:48;46.00;;;21.95;;
27408;SDS011;20413;50.782;7.152;2022-12-13T08:23:15;44.30;;;21.30;;
27408;SDS011;20413;50.782;7.152;2022-12-13T08:25:41;44.50;;;20.85;;
27408;SDS011;20413;50.782;7.152;2022-12-13T08:28:07;47.45;;;22.15;;
27408;SDS011;20413;50.782;7.152;2022-12-13T08:30:33;48.75;;;21.60;;
27408;SDS011;20413;50.782;7.152;2022-12-13T08:32:59;50.22;;;22.08;;
27408;SDS011;20413;50.782;7.152;2022-12-13T08:35:28;40.58;;;20.15;;
27408;SDS011;20413;50.782;7.152;2022-12-13T08:37:54;46.42;;;22.23;;
27408;SDS011;20413;50.782;7.152;2022-12-13T08:40:20;48.10;;;21.58;;
27408;SDS011;20413;50.782;7.152;2022-12-13T08:42:46;48.35;;;22.38;;
27408;SDS011;20413;50.782;7.152;2022-12-13T08:45:13;41.47;;;19.83;;
27408;SDS011;20413;50.782;7.152;2022-12-13T08:47:39;45.47;;;19.73;;
27408;SDS011;20413;50.782;7.152;2022-12-13T08:50:05;45.47;;;19.08;;
27408;SDS011;20413;50.782;7.152;2022-12-13T08:52:31;45.30;;;19.48;;
27408;SDS011;20413;50.782;7.152;2022-12-13T08:54:58;43.88;;;20.75;;
27408;SDS011;20413;50.782;7.152;2022-12-13T08:57:24;43.67;;;20.10;;
27408;SDS011;20413;50.782;7.152;2022-12-13T08:59:50;39.15;;;17.80;;
27408;SDS011;20413;50.782;7.152;2022-12-13T09:04:44;47.03;;;20.80;;
27408;SDS011;20413;50.782;7.152;2022-12-13T09:07:10;42.78;;;19.50;;
27408;SDS011;20413;50.782;7.152;2022-12-13T09:09:36;40.65;;;18.50;;
27408;SDS011;20413;50.782;7.152;2022-12-13T09:12:02;41.17;;;19.27;;
27408;SDS011;20413;50.782;7.152;2022-12-13T09:14:28;43.20;;;19.85;;
27408;SDS011;20413;50.782;7.152;2022-12-13T09:16:54;42.75;;;20.50;;
27408;SDS011;20413;50.782;7.152;2022-12-13T09:19:21;44.90;;;20.40;;
27408;SDS011;20413;50.782;7.152;2022-12-13T09:21:49;48.65;;;21.73;;
27408;SDS011;20413;50.782;7.152;2022-12-13T09:24:15;41.97;;;19.30;;
27408;SDS011;20413;50.782;7.152;2022-12-13T09:26:41;44.80;;;19.42;;
27408;SDS011;20413;50.782;7.152;2022-12-13T09:29:07;41.50;;;19.75;;
27408;SDS011;20413;50.782;7.152;2022-12-13T09:31:33;45.70;;;20.45;;
27408;SDS011;20413;50.782;7.152;2022-12-13T09:34:02;44.97;;;19.23;;
27408;SDS011;20413;50.782;7.152;2022-12-13T09:36:29;45.65;;;18.65;;
27408;SDS011;20413;50.782;7.152;2022-12-13T09:38:55;41.30;;;19.48;;
27408;SDS011;20413;50.782;7.152;2022-12-13T09:41:36;41.75;;;18.48;;
27408;SDS011;20413;50.782;7.152;2022-12-13T09:44:06;43.08;;;19.23;;
27408;SDS011;20413;50.782;7.152;2022-12-13T09:46:37;41.58;;;19.52;;
27408;SDS011;20413;50.782;7.152;2022-12-13T09:49:06;41.35;;;18.88;;
27408;SDS011;20413;50.782;7.152;2022-12-13T09:51:36;38.20;;;17.70;;
27408;SDS011;20413;50.782;7.152;2022-12-13T09:54:02;41.28;;;18.60;;
27408;SDS011;20413;50.782;7.152;2022-12-13T09:56:28;39.20;;;18.50;;
27408;SDS011;20413;50.782;7.152;2022-12-13T09:58:55;41.10;;;17.98;;
27408;SDS011;20413;50.782;7.152;2022-12-13T10:01:21;42.40;;;19.02;;
27408;SDS011;20413;50.782;7.152;2022-12-13T10:03:48;42.65;;;18.55;;
27408;SDS011;20413;50.782;7.152;2022-12-13T10:06:17;38.35;;;19.00;;
27408;SDS011;20413;50.782;7.152;2022-12-13T10:08:44;48.53;;;19.98;;
27408;SDS011;20413;50.782;7.152;2022-12-13T10:11:11;38.40;;;16.70;;
27408;SDS011;20413;50.782;7.152;2022-12-13T10:16:08;38.88;;;17.73;;
27408;SDS011;20413;50.782;7.152;2022-12-13T10:18:38;36.17;;;17.15;;
27408;SDS011;20413;50.782;7.152;2022-12-13T10:23:37;36.95;;;18.15;;
27408;SDS011;20413;50.782;7.152;2022-12-13T10:26:07;37.65;;;17.40;;
27408;SDS011;20413;50.782;7.152;2022-12-13T10:28:33;40.83;;;18.13;;
27408;SDS011;20413;50.782;7.152;2022-12-13T10:30:59;39.13;;;18.92;;
27408;SDS011;20413;50.782;7.152;2022-12-13T10:33:29;39.42;;;17.92;;
27408;SDS011;20413;50.782;7.152;2022-12-13T10:36:03;44.85;;;19.02;;
27408;SDS011;20413;50.782;7.152;2022-12-13T10:38:30;36.92;;;18.55;;
27408;SDS011;20413;50.782;7.152;2022-12-13T10:40:56;33.53;;;14.75;;
27408;SDS011;20413;50.782;7.152;2022-12-13T10:43:23;35.22;;;15.32;;
27408;SDS011;20413;50.782;7.152;2022-12-13T10:51:08;36.30;;;16.42;;
27408;SDS011;20413;50.782;7.152;2022-12-13T10:53:36;38.35;;;16.95;;
27408;SDS011;20413;50.782;7.152;2022-12-13T10:56:03;33.08;;;15.25;;
27408;SDS011;20413;50.782;7.152;2022-12-13T10:58:37;33.90;;;14.57;;
27408;SDS011;20413;50.782;7.152;2022-12-13T11:01:11;36.65;;;15.90;;
27408;SDS011;20413;50.782;7.152;2022-12-13T11:03:59;37.22;;;16.00;;
27408;SDS011;20413;50.782;7.152;2022-12-13T11:06:27;29.42;;;14.43;;
27408;SDS011;20413;50.782;7.152;2022-12-13T11:08:53;32.90;;;16.60;;
27408;SDS011;20413;50.782;7.152;2022-12-13T11:11:26;37.20;;;16.65;;
27408;SDS011;20413;50.782;7.152;2022-12-13T11:13:54;37.72;;;16.60;;
27408;SDS011;20413;50.782;7.152;2022-12-13T11:16:31;37.42;;;16.63;;
27408;SDS011;20413;50.782;7.152;2022-12-13T11:18:59;28.83;;;12.10;;
27408;SDS011;20413;50.782;7.152;2022-12-13T11:23:53;32.40;;;13.10;;
27408;SDS011;20413;50.782;7.152;2022-12-13T11:26:20;22.40;;;10.15;;
27408;SDS011;20413;50.782;7.152;2022-12-13T11:28:59;25.23;;;11.20;;
27408;SDS011;20413;50.782;7.152;2022-12-13T11:31:32;26.23;;;10.75;;
27408;SDS011;20413;50.782;7.152;2022-12-13T11:39:08;31.00;;;12.45;;
27408;SDS011;20413;50.782;7.152;2022-12-13T11:41:39;22.58;;;11.55;;
27408;SDS011;20413;50.782;7.152;2022-12-13T11:47:01;30.63;;;14.40;;
27408;SDS011;20413;50.782;7.152;2022-12-13T11:49:37;29.08;;;13.07;;
27408;SDS011;20413;50.782;7.152;2022-12-13T11:52:17;29.75;;;13.98;;
27408;SDS011;20413;50.782;7.152;2022-12-13T11:54:49;29.75;;;13.05;;
27408;SDS011;20413;50.782;7.152;2022-12-13T12:02:48;28.33;;;12.20;;
27408;SDS011;20413;50.782;7.152;2022-12-13T12:05:29;29.05;;;12.43;;
27408;SDS011;20413;50.782;7.152;2022-12-13T12:08:03;26.77;;;12.20;;
27408;SDS011;20413;50.782;7.152;2022-12-13T12:15:36;29.83;;;12.38;;
27408;SDS011;20413;50.782;7.152;2022-12-13T12:18:08;24.48;;;11.07;;
27408;SDS011;20413;50.782;7.152;2022-12-13T12:25:54;28.92;;;12.25;;
27408;SDS011;20413;50.782;7.152;2022-12-13T12:38:59;21.13;;;9.93;;
27408;SDS011;20413;50.782;7.152;2022-12-13T12:47:03;20.10;;;9.93;;
27408;SDS011;20413;50.782;7.152;2022-12-13T12:49:41;23.05;;;10.90;;
27408;SDS011;20413;50.782;7.152;2022-12-13T12:55:21;19.58;;;9.20;;
27408;SDS011;20413;50.782;7.152;2022-12-13T12:58:01;21.08;;;9.60;;
27408;SDS011;20413;50.782;7.152;2022-12-13T13:00:39;22.80;;;9.73;;
27408;SDS011;20413;50.782;7.152;2022-12-13T13:03:16;18.00;;;8.15;;
27408;SDS011;20413;50.782;7.152;2022-12-13T13:05:44;20.10;;;10.00;;
27408;SDS011;20413;50.782;7.152;2022-12-13T13:10:38;21.58;;;10.63;;
27408;SDS011;20413;50.782;7.152;2022-12-13T13:17:58;23.25;;;10.98;;
27408;SDS011;20413;50.782;7.152;2022-12-13T13:20:24;21.98;;;10.07;;
27408;SDS011;20413;50.782;7.152;2022-12-13T13:22:54;27.52;;;11.10;;
27408;SDS011;20413;50.782;7.152;2022-12-13T13:27:47;22.63;;;10.68;;
27408;SDS011;20413;50.782;7.152;2022-12-13T13:30:18;21.67;;;9.93;;
27408;SDS011;20413;50.782;7.152;2022-12-13T13:32:45;21.80;;;9.75;;
27408;SDS011;20413;50.782;7.152;2022-12-13T13:37:53;24.52;;;9.77;;
27408;SDS011;20413;50.782;7.152;2022-12-13T13:40:29;20.52;;;9.48;;
27408;SDS011;20413;50.782;7.152;2022-12-13T13:55:53;23.88;;;10.85;;
27408;SDS011;20413;50.782;7.152;2022-12-13T14:01:29;23.17;;;10.00;;
27408;SDS011;20413;50.782;7.152;2022-12-13T14:22:45;24.15;;;10.57;;
27408;SDS011;20413;50.782;7.152;2022-12-13T14:25:20;22.38;;;10.55;;
27408;SDS011;20413;50.782;7.152;2022-12-13T14:27:51;23.83;;;11.05;;
27408;SDS011;20413;50.782;7.152;2022-12-13T14:30:19;22.80;;;10.55;;
27408;SDS011;20413;50.782;7.152;2022-12-13T14:32:46;20.17;;;9.98;;
27408;SDS011;20413;50.782;7.152;2022-12-13T14:35:24;21.20;;;9.63;;
27408;SDS011;20413;50.782;7.152;2022-12-13T14:37:55;25.15;;;10.57;;
27408;SDS011;20413;50.782;7.152;2022-12-13T14:42:52;24.13;;;10.63;;
27408;SDS011;20413;50.782;7.152;2022-12-13T14:45:22;18.25;;;9.68;;
27408;SDS011;20413;50.782;7.152;2022-12-13T14:47:49;25.65;;;10.77;;
27408;SDS011;20413;50.782;7.152;2022-12-13T14:50:17;21.40;;;10.02;;
27408;SDS011;20413;50.782;7.152;2022-12-13T14:52:43;23.25;;;9.85;;
27408;SDS011;20413;50.782;7.152;2022-12-13T14:55:26;17.13;;;8.67;;
27408;SDS011;20413;50.782;7.152;2022-12-13T14:57:53;22.35;;;10.60;;
27408;SDS011;20413;50.782;7.152;2022-12-13T15:02:53;22.92;;;10.50;;
27408;SDS011;20413;50.782;7.152;2022-12-13T15:05:24;21.67;;;9.88;;
27408;SDS011;20413;50.782;7.152;2022-12-13T15:07:51;19.38;;;9.05;;
27408;SDS011;20413;50.782;7.152;2022-12-13T15:10:21;22.40;;;9.95;;
27408;SDS011;20413;50.782;7.152;2022-12-13T15:12:48;22.58;;;9.93;;
27408;SDS011;20413;50.782;7.152;2022-12-13T15:15:21;23.02;;;9.63;;
27408;SDS011;20413;50.782;7.152;2022-12-13T15:17:48;21.17;;;10.02;;
27408;SDS011;20413;50.782;7.152;2022-12-13T15:20:29;23.80;;;10.00;;
27408;SDS011;20413;50.782;7.152;2022-12-13T15:22:59;15.53;;;7.53;;
27408;SDS011;20413;50.782;7.152;2022-12-13T15:25:27;21.27;;;9.13;;
27408;SDS011;20413;50.782;7.152;2022-12-13T15:27:54;23.00;;;9.88;;
27408;SDS011;20413;50.782;7.152;2022-12-13T15:30:20;20.30;;;10.20;;
27408;SDS011;20413;50.782;7.152;2022-12-13T15:33:02;26.30;;;10.48;;
27408;SDS011;20413;50.782;7.152;2022-12-13T15:35:29;23.42;;;10.07;;
27408;SDS011;20413;50.782;7.152;2022-12-13T15:37:55;22.58;;;10.88;;
27408;SDS011;20413;50.782;7.152;2022-12-13T15:40:21;23.23;;;9.85;;
27408;SDS011;20413;50.782;7.152;2022-12-13T15:42:47;18.85;;;8.52;;
27408;SDS011;20413;50.782;7.152;2022-12-13T15:45:24;22.33;;;10.43;;
27408;SDS011;20413;50.782;7.152;2022-12-13T15:47:52;22.42;;;10.57;;
27408;SDS011;20413;50.782;7.152;2022-12-13T15:50:29;24.52;;;10.60;;
27408;SDS011;20413;50.782;7.152;2022-12-13T15:53:00;23.83;;;9.70;;
27408;SDS011;20413;50.782;7.152;2022-12-13T15:55:31;20.70;;;9.98;;
27408;SDS011;20413;50.782;7.152;2022-12-13T15:57:57;25.50;;;11.10;;
27408;SDS011;20413;50.782;7.152;2022-12-13T16:00:25;25.48;;;11.40;;
27408;SDS011;20413;50.782;7.152;2022-12-13T16:02:56;24.23;;;9.50;;
27408;SDS011;20413;50.782;7.152;2022-12-13T16:05:27;23.08;;;10.55;;
27408;SDS011;20413;50.782;7.152;2022-12-13T16:07:55;25.40;;;10.63;;
27408;SDS011;20413;50.782;7.152;2022-12-13T16:10:21;21.33;;;10.77;;
27408;SDS011;20413;50.782;7.152;2022-12-13T16:12:49;21.55;;;9.57;;
27408;SDS011;20413;50.782;7.152;2022-12-13T16:15:22;24.30;;;10.02;;
27408;SDS011;20413;50.782;7.152;2022-12-13T16:17:52;20.02;;;9.10;;
27408;SDS011;20413;50.782;7.152;2022-12-13T16:20:19;27.38;;;11.45;;
27408;SDS011;20413;50.782;7.152;2022-12-13T16:22:46;23.92;;;10.45;;
27408;SDS011;20413;50.782;7.152;2022-12-13T16:25:13;22.08;;;10.40;;
27408;SDS011;20413;50.782;7.152;2022-12-13T16:27:40;29.45;;;11.98;;
27408;SDS011;20413;50.782;7.152;2022-12-13T16:30:13;26.17;;;10.95;;
27408;SDS011;20413;50.782;7.152;2022-12-13T16:32:39;23.80;;;10.68;;
27408;SDS011;20413;50.782;7.152;2022-12-13T16:35:05;25.42;;;11.32;;
27408;SDS011;20413;50.782;7.152;2022-12-13T16:37:31;28.23;;;11.88;;
27408;SDS011;20413;50.782;7.152;2022-12-13T16:39:58;23.25;;;11.02;;
27408;SDS011;20413;50.782;7.152;2022-12-13T16:42:26;26.30;;;11.35;;
27408;SDS011;20413;50.782;7.152;2022-12-13T16:44:52;25.17;;;11.32;;
27408;SDS011;20413;50.782;7.152;2022-12-13T16:47:19;17.43;;;7.73;;